Time;durP1;ratioP1;P1;durP2;ratioP2;P2;SDS_P1;SDS_P2;PMS_P1;PMS_P2;Temp;Humidity;BMP_temperature;BMP_pressure;BME280_temperature;BME280_humidity;BME280_pressure;Samples;Min_cycle;Max_cycle;Signal;HPM_P1;HPM_P2
2023/05/02 00:00:44;;;;;;;21.70;13.27;;;11.10;90.80;;;;;;5073362;28;20167;-67
2023/05/02 00:03:11;;;;;;;17.30;11.10;;;11.10;92.40;;;;;;5074487;28;20273;-69
2023/05/02 00:05:37;;;;;;;19.47;12.53;;;11.20;92.50;;;;;;5074214;28;20386;-70
2023/05/02 00:08:02;;;;;;;16.10;10.10;;;11.20;96.80;;;;;;5073949;28;20740;-69
2023/05/02 00:10:28;;;;;;;18.43;10.53;;;11.20;93.20;;;;;;5055628;28;20259;-66
2023/05/02 00:12:54;;;;;;;15.87;9.90;;;11.20;96.80;;;;;;5055739;28;21008;-69
2023/05/02 00:15:20;;;;;;;19.67;10.73;;;11.10;99.90;;;;;;5074156;28;20193;-67
2023/05/02 00:17:46;;;;;;;16.90;10.37;;;11.10;99.90;;;;;;5073532;28;20856;-70
2023/05/02 00:20:12;;;;;;;17.30;10.83;;;11.00;99.90;;;;;;5072987;28;20177;-67
2023/05/02 00:22:38;;;;;;;17.60;10.50;;;11.00;99.90;;;;;;5073036;28;20202;-69
2023/05/02 00:25:05;;;;;;;19.93;10.97;;;10.90;99.90;;;;;;5073197;28;20407;-70
2023/05/02 00:27:32;;;;;;;15.33;10.10;;;10.90;99.90;;;;;;5073734;28;20830;-70
2023/05/02 00:30:00;;;;;;;20.43;12.10;;;11.00;99.90;;;;;;5073490;28;20785;-70
2023/05/02 00:32:27;;;;;;;16.20;11.00;;;11.00;99.90;;;;;;5072935;28;20430;-70
2023/05/02 00:34:53;;;;;;;24.43;13.47;;;11.00;99.90;;;;;;5055186;28;20430;-70
2023/05/02 00:37:19;;;;;;;20.80;12.17;;;11.00;99.90;;;;;;5073745;28;20840;-70
2023/05/02 00:39:44;;;;;;;20.20;11.40;;;11.10;99.90;;;;;;5073143;28;20919;-70
2023/05/02 00:42:13;;;;;;;27.97;13.90;;;11.10;99.90;;;;;;5073071;28;20419;-67
2023/05/02 00:44:39;;;;;;;23.73;13.40;;;11.10;99.90;;;;;;5072511;28;20208;-70
2023/05/02 00:47:05;;;;;;;17.43;12.13;;;11.10;99.90;;;;;;5073705;28;20387;-67
2023/05/02 00:49:31;;;;;;;17.57;11.47;;;11.20;99.90;;;;;;5073602;28;20876;-69
2023/05/02 00:51:58;;;;;;;22.17;11.90;;;11.10;99.90;;;;;;5072745;28;20233;-66
2023/05/02 00:54:23;;;;;;;23.97;12.10;;;11.10;99.90;;;;;;5071735;28;20494;-66
2023/05/02 00:56:49;;;;;;;18.67;11.10;;;11.10;99.90;;;;;;5073541;28;20847;-70
2023/05/02 00:59:16;;;;;;;21.13;11.87;;;11.10;99.90;;;;;;5073435;28;20174;-68
2023/05/02 01:02:10;;;;;;;20.80;12.30;;;11.10;99.90;;;;;;5072532;28;20170;-70
2023/05/02 01:04:47;;;;;;;17.17;11.53;;;11.10;99.90;;;;;;5055844;28;20409;-67
2023/05/02 01:07:40;;;;;;;18.73;11.83;;;11.10;99.90;;;;;;5072015;28;20436;-69
2023/05/02 01:10:25;;;;;;;15.03;9.40;;;11.10;99.90;;;;;;5035087;28;20505;-67
2023/05/02 01:12:59;;;;;;;16.10;9.40;;;11.20;99.90;;;;;;5052677;28;20452;-66
2023/05/02 01:15:25;;;;;;;16.37;9.20;;;11.10;99.90;;;;;;5052761;28;20438;-67
2023/05/02 01:17:53;;;;;;;9.53;7.13;;;11.10;99.90;;;;;;5053225;28;20471;-69
2023/05/02 01:20:26;;;;;;;10.23;6.50;;;11.10;99.90;;;;;;5034847;28;20892;-70
2023/05/02 01:22:56;;;;;;;8.97;6.60;;;11.00;99.90;;;;;;5053334;28;20784;-67
2023/05/02 01:25:31;;;;;;;11.10;5.67;;;11.00;99.90;;;;;;5053132;28;20391;-67
2023/05/02 01:28:17;;;;;;;5.03;4.20;;;11.00;99.90;;;;;;5054459;28;20471;-69
2023/05/02 01:30:49;;;;;;;5.70;3.87;;;10.80;99.90;;;;;;5075939;28;20417;-69
2023/05/02 01:33:19;;;;;;;4.60;4.20;;;10.70;99.90;;;;;;5076724;28;20387;-68
2023/05/02 01:35:50;;;;;;;4.83;4.43;;;10.60;99.90;;;;;;5076702;28;20930;-70
2023/05/02 01:38:18;;;;;;;4.10;3.70;;;10.50;99.90;;;;;;5077097;28;20570;-70
2023/05/02 01:40:45;;;;;;;6.23;5.00;;;10.50;99.90;;;;;;5076226;28;20438;-68
2023/05/02 01:43:13;;;;;;;13.47;5.37;;;10.40;99.90;;;;;;5058194;28;20801;-70
2023/05/02 01:45:42;;;;;;;9.07;5.13;;;10.30;99.90;;;;;;5076781;28;20893;-69
2023/05/02 01:48:09;;;;;;;10.30;4.70;;;10.10;99.90;;;;;;5058930;28;20865;-68
2023/05/02 01:50:38;;;;;;;7.77;4.37;;;9.80;99.90;;;;;;5074790;28;20489;-67
2023/05/02 01:53:06;;;;;;;8.97;4.20;;;9.60;99.90;;;;;;5076767;28;20466;-70
2023/05/02 01:55:34;;;;;;;6.50;5.20;;;9.30;99.90;;;;;;5076570;28;20429;-69
2023/05/02 01:58:01;;;;;;;10.10;3.77;;;9.10;99.90;;;;;;5076514;28;20395;-68
2023/05/02 02:00:29;;;;;;;20.90;5.17;;;9.00;99.90;;;;;;5075639;28;20360;-67
2023/05/02 02:02:57;;;;;;;12.13;6.13;;;8.80;99.90;;;;;;5076552;28;20441;-67
2023/05/02 02:05:24;;;;;;;11.63;4.40;;;8.70;99.90;;;;;;5075814;28;20436;-69
2023/05/02 02:07:50;;;;;;;12.20;4.30;;;8.70;99.90;;;;;;5075957;28;20408;-69
2023/05/02 02:10:16;;;;;;;10.87;5.50;;;8.50;99.90;;;;;;5075675;28;20432;-67
2023/05/02 02:12:48;;;;;;;21.37;5.10;;;8.40;99.90;;;;;;5076280;28;20948;-67
2023/05/02 02:15:30;;;;;;;12.03;4.67;;;8.20;99.90;;;;;;5076302;28;20555;-67
2023/05/02 02:18:07;;;;;;;7.30;4.80;;;8.00;91.80;;;;;;5075072;28;20621;-68
2023/05/02 02:20:34;;;;;;;13.43;5.53;;;7.90;58.10;;;;;;5075343;28;20436;-67
2023/05/02 02:23:04;;;;;;;11.13;5.33;;;7.90;38.80;;;;;;5076152;28;20523;-66
2023/05/02 02:25:30;;;;;;;21.00;7.60;;;7.90;36.50;;;;;;5076158;28;20428;-66
2023/05/02 02:27:56;;;;;;;17.73;6.23;;;7.80;27.30;;;;;;5057271;28;20417;-66
2023/05/02 02:30:22;;;;;;;9.07;5.80;;;7.80;19.70;;;;;;5075100;28;20435;-66
2023/05/02 02:32:48;;;;;;;11.57;5.50;;;7.70;4.20;;;;;;5075361;28;20940;-66
2023/05/02 02:35:14;;;;;;;9.43;4.23;;;7.60;1.00;;;;;;5075593;28;20528;-67
2023/05/02 02:37:43;;;;;;;20.33;5.47;;;7.60;1.00;;;;;;5057851;28;20645;-66
2023/05/02 02:40:33;;;;;;;15.93;5.50;;;7.50;1.00;;;;;;5074363;28;21254;-68
2023/05/02 02:43:18;;;;;;;14.00;6.20;;;7.40;1.00;;;;;;5075936;28;20425;-68
2023/05/02 02:46:12;;;;;;;15.23;4.57;;;7.30;1.00;;;;;;5074286;28;20458;-66
2023/05/02 02:48:49;;;;;;;28.67;7.00;;;7.30;1.00;;;;;;5076801;28;20416;-66
2023/05/02 02:51:49;;;;;;;28.57;6.40;;;7.30;1.00;;;;;;5074763;28;20415;-67
2023/05/02 02:54:30;;;;;;;12.47;4.30;;;7.30;1.00;;;;;;5076038;28;20499;-67
2023/05/02 02:57:23;;;;;;;18.90;5.90;;;7.20;1.00;;;;;;5075739;28;20404;-67
2023/05/02 03:00:12;;;;;;;14.63;4.90;;;7.20;1.00;;;;;;5074422;28;20439;-66
2023/05/02 03:02:41;;;;;;;13.43;5.13;;;7.20;1.00;;;;;;5057552;28;20432;-67
2023/05/02 03:05:09;;;;;;;13.37;5.30;;;7.20;1.00;;;;;;5075565;28;20873;-66
2023/05/02 03:07:35;;;;;;;15.43;4.90;;;7.20;1.00;;;;;;5075039;28;20892;-66
2023/05/02 03:10:04;;;;;;;10.10;4.83;;;7.20;1.00;;;;;;5075034;28;20404;-68
2023/05/02 03:12:30;;;;;;;16.17;5.07;;;7.20;1.00;;;;;;5075113;28;20456;-65
2023/05/02 03:15:07;;;;;;;18.03;4.70;;;7.10;1.00;;;;;;5055216;28;20460;-63
2023/05/02 03:17:33;;;;;;;11.83;5.80;;;7.00;1.00;;;;;;5037204;28;20417;-65
2023/05/02 03:19:59;;;;;;;17.10;6.03;;;7.00;1.00;;;;;;5054711;28;20412;-65
2023/05/02 03:22:24;;;;;;;14.67;4.50;;;7.00;1.00;;;;;;5054601;28;20205;-65
2023/05/02 03:24:50;;;;;;;14.60;5.30;;;6.90;1.00;;;;;;5054465;28;20205;-65
2023/05/02 03:27:16;;;;;;;7.13;4.50;;;6.80;1.00;;;;;;5065641;28;20437;-67
2023/05/02 03:29:41;;;;;;;10.10;4.00;;;6.70;1.00;;;;;;5075166;28;20177;-68
2023/05/02 03:32:08;;;;;;;9.00;3.90;;;6.70;1.00;;;;;;5074101;28;20198;-68
2023/05/02 03:34:33;;;;;;;8.60;4.17;;;6.70;1.00;;;;;;5075429;28;20201;-67
2023/05/02 03:36:59;;;;;;;9.90;4.47;;;6.70;1.00;;;;;;5074820;28;20400;-65
2023/05/02 03:39:25;;;;;;;11.37;4.47;;;6.70;1.00;;;;;;5074675;28;20165;-65
2023/05/02 03:41:51;;;;;;;11.47;5.10;;;6.60;1.00;;;;;;5073084;28;20269;-67
2023/05/02 03:44:20;;;;;;;11.43;5.00;;;6.60;1.00;;;;;;5074602;28;20309;-67
2023/05/02 03:46:47;;;;;;;9.17;4.60;;;6.70;1.00;;;;;;5074477;28;20404;-65
2023/05/02 03:49:12;;;;;;;10.40;4.63;;;6.70;1.00;;;;;;5056666;28;20759;-67
2023/05/02 03:51:39;;;;;;;14.60;5.10;;;6.60;1.00;;;;;;5072699;28;20435;-65
2023/05/02 03:54:04;;;;;;;9.37;4.50;;;6.60;1.00;;;;;;5073897;28;20197;-65
2023/05/02 03:56:30;;;;;;;8.23;4.17;;;6.70;1.00;;;;;;5074477;28;20456;-65
2023/05/02 03:58:56;;;;;;;7.87;4.00;;;6.70;1.00;;;;;;5074071;28;20177;-66
2023/05/02 04:01:22;;;;;;;11.60;4.00;;;6.70;1.00;;;;;;5073637;28;20166;-68
2023/05/02 04:03:49;;;;;;;10.10;3.93;;;6.80;1.00;;;;;;5074020;28;20482;-65
2023/05/02 04:06:14;;;;;;;5.60;3.63;;;6.80;1.00;;;;;;5074111;28;20170;-65
2023/05/02 04:08:40;;;;;;;13.90;4.30;;;6.80;1.00;;;;;;5073532;28;20443;-65
2023/05/02 04:11:06;;;;;;;16.43;4.50;;;6.80;1.00;;;;;;5073161;28;20185;-65
2023/05/02 04:13:31;;;;;;;15.93;4.40;;;6.80;1.00;;;;;;5073981;28;20214;-67
2023/05/02 04:15:57;;;;;;;9.57;4.00;;;6.80;1.00;;;;;;5073642;28;20655;-66
2023/05/02 04:18:23;;;;;;;7.63;3.97;;;6.70;1.00;;;;;;5073818;28;20252;-65
2023/05/02 04:20:49;;;;;;;6.00;4.50;;;6.70;1.00;;;;;;5072413;28;20170;-67
2023/05/02 04:23:16;;;;;;;10.23;4.33;;;6.70;1.00;;;;;;5073507;28;20708;-66
2023/05/02 04:25:50;;;;;;;14.37;4.33;;;6.70;1.00;;;;;;5074901;28;20483;-65
2023/05/02 04:28:16;;;;;;;4.23;3.60;;;6.70;1.00;;;;;;5073827;28;20403;-68
2023/05/02 04:30:42;;;;;;;9.43;4.30;;;6.80;1.00;;;;;;5072927;28;20401;-68
2023/05/02 04:33:07;;;;;;;12.93;5.00;;;6.80;1.00;;;;;;5073589;28;20544;-65
2023/05/02 04:35:33;;;;;;;15.00;4.67;;;6.90;1.00;;;;;;5072681;28;20221;-66
2023/05/02 04:37:59;;;;;;;11.80;4.33;;;6.90;1.00;;;;;;5073944;28;20182;-68
2023/05/02 04:40:24;;;;;;;8.13;4.07;;;7.00;1.00;;;;;;5073150;28;20179;-67
2023/05/02 04:42:50;;;;;;;11.30;3.70;;;7.00;1.00;;;;;;5073402;28;20205;-65
2023/05/02 04:45:16;;;;;;;10.13;4.20;;;7.00;1.00;;;;;;5073616;28;20174;-66
2023/05/02 04:47:41;;;;;;;12.50;3.80;;;7.10;1.00;;;;;;5073971;28;20641;-65
2023/05/02 04:50:08;;;;;;;16.53;6.00;;;7.20;1.00;;;;;;5071488;28;20219;-67
2023/05/02 04:52:34;;;;;;;7.63;3.70;;;7.20;1.00;;;;;;5055117;28;20559;-66
2023/05/02 04:55:00;;;;;;;11.70;3.87;;;7.20;1.00;;;;;;5073493;28;20474;-65
2023/05/02 04:57:25;;;;;;;15.00;4.40;;;7.20;1.00;;;;;;5073496;28;20419;-66
2023/05/02 04:59:51;;;;;;;9.30;3.90;;;7.20;1.00;;;;;;5073218;28;20245;-67
2023/05/02 05:02:17;;;;;;;20.17;5.07;;;7.20;1.00;;;;;;5072616;28;20186;-66
2023/05/02 05:04:44;;;;;;;14.63;3.53;;;7.30;1.00;;;;;;5073818;28;20193;-67
2023/05/02 05:07:10;;;;;;;8.87;3.80;;;7.30;1.00;;;;;;5074354;28;20523;-68
2023/05/02 05:09:36;;;;;;;17.03;4.63;;;7.30;1.00;;;;;;5073371;28;20411;-66
2023/05/02 05:12:02;;;;;;;8.47;4.30;;;7.30;1.00;;;;;;5071860;28;20228;-66
2023/05/02 05:14:27;;;;;;;15.27;4.00;;;7.30;1.00;;;;;;5073083;28;20585;-66
2023/05/02 05:16:53;;;;;;;10.57;3.50;;;7.30;1.00;;;;;;5073382;28;20397;-67
2023/05/02 05:19:19;;;;;;;6.90;4.00;;;7.30;1.00;;;;;;5073218;28;20224;-66
2023/05/02 05:21:44;;;;;;;10.60;3.80;;;7.40;1.00;;;;;;5054284;28;20224;-67
2023/05/02 05:24:10;;;;;;;3.83;3.43;;;7.40;1.00;;;;;;5073284;28;20176;-67
2023/05/02 05:26:36;;;;;;;7.37;3.20;;;7.40;1.00;;;;;;5073273;28;20634;-66
2023/05/02 05:29:02;;;;;;;11.70;3.70;;;7.30;1.00;;;;;;5073152;28;20190;-65
2023/05/02 05:31:28;;;;;;;5.37;3.73;;;7.30;1.00;;;;;;5071751;28;20415;-67
2023/05/02 05:33:53;;;;;;;13.37;4.40;;;7.40;1.00;;;;;;5070617;28;20238;-67
2023/05/02 05:36:19;;;;;;;7.87;3.63;;;7.40;1.00;;;;;;5072321;28;20248;-65
2023/05/02 05:38:45;;;;;;;7.23;3.93;;;7.40;1.00;;;;;;5074932;28;20170;-65
2023/05/02 05:41:11;;;;;;;6.17;3.17;;;7.40;1.00;;;;;;5072416;28;20178;-67
2023/05/02 05:43:36;;;;;;;7.17;3.70;;;7.40;1.00;;;;;;5072964;28;20663;-66
2023/05/02 05:46:02;;;;;;;3.80;3.47;;;7.40;1.00;;;;;;5072907;28;20174;-67
2023/05/02 05:48:28;;;;;;;5.70;3.60;;;7.40;1.00;;;;;;5073204;28;20227;-65
2023/05/02 05:50:53;;;;;;;3.80;2.83;;;7.40;1.00;;;;;;5070410;28;20636;-65
2023/05/02 05:53:20;;;;;;;11.00;3.70;;;7.50;1.00;;;;;;5073748;28;20189;-67
2023/05/02 05:55:46;;;;;;;13.63;4.73;;;7.50;1.00;;;;;;5073587;28;20286;-65
2023/05/02 05:58:12;;;;;;;7.60;3.50;;;7.50;1.00;;;;;;5073728;28;20826;-68
2023/05/02 06:00:38;;;;;;;11.90;3.60;;;7.50;1.00;;;;;;5052626;28;20666;-67
2023/05/02 06:03:04;;;;;;;4.97;3.60;;;7.40;1.00;;;;;;5073872;28;20427;-65
2023/05/02 06:05:31;;;;;;;3.80;2.80;;;7.40;1.00;;;;;;5072663;28;20500;-65
2023/05/02 06:07:57;;;;;;;5.03;3.27;;;7.50;1.00;;;;;;5071256;28;20452;-65
2023/05/02 06:10:23;;;;;;;8.67;3.00;;;7.60;1.00;;;;;;5072202;28;20408;-67
2023/05/02 06:12:49;;;;;;;7.50;2.83;;;7.60;1.00;;;;;;5073019;28;20448;-67
2023/05/02 06:15:15;;;;;;;7.23;3.80;;;7.60;1.00;;;;;;5074825;28;20532;-67
2023/05/02 06:17:40;;;;;;;6.50;3.47;;;7.60;1.00;;;;;;5076353;28;20355;-65
2023/05/02 06:20:07;;;;;;;2.83;2.63;;;7.60;1.00;;;;;;5075260;28;20432;-67
2023/05/02 06:22:32;;;;;;;8.33;7.63;;;7.60;1.00;;;;;;5075287;28;20194;-66
2023/05/02 06:24:58;;;;;;;4.57;3.30;;;7.70;1.00;;;;;;5075990;28;20427;-65
2023/05/02 06:27:24;;;;;;;6.67;3.20;;;7.70;1.00;;;;;;5076052;28;20174;-71
2023/05/02 06:29:51;;;;;;;6.47;4.20;;;7.80;1.00;;;;;;5058203;28;20444;-66
2023/05/02 06:32:17;;;;;;;7.57;3.30;;;7.90;1.00;;;;;;5075169;28;20243;-65
2023/05/02 06:34:43;;;;;;;5.20;3.20;;;7.90;1.00;;;;;;5074106;28;20602;-69
2023/05/02 06:37:09;;;;;;;8.70;3.13;;;8.00;1.00;;;;;;5078553;28;20902;-70
2023/05/02 06:39:36;;;;;;;7.67;3.80;;;7.90;1.00;;;;;;5075754;28;20803;-68
2023/05/02 06:42:01;;;;;;;3.83;2.90;;;8.00;1.00;;;;;;5074531;28;20425;-70
2023/05/02 06:44:27;;;;;;;5.53;2.83;;;8.00;1.00;;;;;;5076063;28;20916;-68
2023/05/02 06:46:55;;;;;;;4.10;2.67;;;8.00;1.00;;;;;;5075899;28;20171;-64
2023/05/02 06:49:21;;;;;;;7.90;3.10;;;8.10;1.00;;;;;;5074817;28;20178;-65
2023/05/02 06:51:47;;;;;;;4.73;2.87;;;8.20;1.00;;;;;;5074771;28;20886;-69
2023/05/02 06:54:14;;;;;;;4.77;2.80;;;8.30;1.00;;;;;;5075454;28;20387;-64
2023/05/02 06:56:40;;;;;;;5.63;3.43;;;8.20;1.00;;;;;;5075532;28;20212;-65
2023/05/02 06:59:06;;;;;;;7.00;3.07;;;8.20;1.00;;;;;;5075596;28;20402;-66
2023/05/02 07:01:32;;;;;;;5.93;2.50;;;8.10;1.00;;;;;;5074273;28;20412;-64
2023/05/02 07:03:57;;;;;;;8.60;3.23;;;8.10;1.00;;;;;;5056247;28;20198;-65
2023/05/02 07:06:23;;;;;;;11.00;3.27;;;8.20;1.00;;;;;;5076245;28;20199;-65
2023/05/02 07:08:49;;;;;;;3.73;2.90;;;8.30;1.00;;;;;;5075402;28;20155;-65
2023/05/02 07:11:15;;;;;;;7.63;3.03;;;8.30;1.00;;;;;;5074580;28;20249;-66
2023/05/02 07:13:40;;;;;;;5.57;2.67;;;8.40;1.00;;;;;;5075625;28;20216;-65
2023/05/02 07:16:11;;;;;;;5.87;3.10;;;8.60;1.00;;;;;;5074911;28;20226;-68
2023/05/02 07:18:36;;;;;;;6.10;3.30;;;8.60;1.00;;;;;;5074404;28;20869;-66
2023/05/02 07:21:02;;;;;;;4.50;2.73;;;8.60;99.90;;;;;;5074393;28;20434;-67
2023/05/02 07:23:28;;;;;;;11.03;3.13;;;8.60;99.90;;;;;;5075052;28;20214;-65
2023/05/02 07:25:53;;;;;;;7.40;3.27;;;8.50;99.90;;;;;;5075834;28;20887;-65
2023/05/02 07:28:19;;;;;;;8.40;3.20;;;8.60;99.90;;;;;;5074967;28;20207;-67
2023/05/02 07:30:45;;;;;;;4.03;2.97;;;8.60;99.90;;;;;;5073154;28;20194;-66
2023/05/02 07:33:11;;;;;;;7.60;2.87;;;8.70;99.90;;;;;;5075091;28;20243;-67
2023/05/02 07:35:36;;;;;;;4.03;2.80;;;8.80;1.00;;;;;;5074156;28;20193;-65
2023/05/02 07:38:02;;;;;;;7.60;2.97;;;8.90;99.90;;;;;;5075345;28;20167;-67
2023/05/02 07:40:27;;;;;;;7.83;2.90;;;8.80;99.90;;;;;;5073930;28;20587;-64
2023/05/02 07:42:53;;;;;;;3.20;2.50;;;8.80;99.90;;;;;;5074763;28;20561;-65
2023/05/02 07:45:19;;;;;;;3.57;3.30;;;8.70;99.90;;;;;;5073786;28;20190;-68
2023/05/02 07:47:45;;;;;;;7.63;3.70;;;8.60;99.90;;;;;;5057043;28;20179;-65
2023/05/02 07:50:11;;;;;;;6.53;2.77;;;8.70;99.90;;;;;;5073638;28;20197;-68
2023/05/02 07:52:37;;;;;;;2.73;2.53;;;8.70;99.90;;;;;;5074076;28;20426;-65
2023/05/02 07:55:03;;;;;;;6.43;3.87;;;8.80;99.90;;;;;;5074002;28;20221;-65
2023/05/02 07:57:29;;;;;;;4.20;2.80;;;9.10;99.90;;;;;;5074658;28;20216;-68
2023/05/02 07:59:56;;;;;;;4.97;2.80;;;9.00;99.90;;;;;;5072946;28;20836;-65
2023/05/02 08:02:22;;;;;;;7.33;3.07;;;9.20;99.90;;;;;;5073744;28;20189;-65
2023/05/02 08:04:48;;;;;;;4.13;2.30;;;9.30;99.90;;;;;;5074150;28;20404;-66
2023/05/02 08:07:14;;;;;;;6.63;2.90;;;9.50;99.90;;;;;;5074286;28;20382;-68
2023/05/02 08:09:40;;;;;;;9.47;3.30;;;9.70;1.00;;;;;;5074269;28;20897;-68
2023/05/02 08:12:06;;;;;;;9.10;3.63;;;10.10;1.00;;;;;;5071838;28;20870;-66
2023/05/02 08:14:32;;;;;;;3.73;2.93;;;10.20;99.90;;;;;;5073785;28;20646;-67
2023/05/02 08:16:58;;;;;;;10.53;3.30;;;10.50;1.00;;;;;;5073968;28;20169;-67
2023/05/02 08:19:24;;;;;;;8.17;2.93;;;10.60;99.90;;;;;;5056148;28;20398;-68
2023/05/02 08:21:52;;;;;;;3.77;2.87;;;10.50;99.90;;;;;;5073181;28;20436;-67
2023/05/02 08:24:17;;;;;;;10.00;2.80;;;10.30;99.90;;;;;;5073945;28;20835;-65
2023/05/02 08:26:43;;;;;;;9.33;3.13;;;10.20;99.90;;;;;;5073084;28;20532;-68
2023/05/02 08:29:10;;;;;;;4.10;2.43;;;10.20;99.90;;;;;;5075286;28;20233;-67
2023/05/02 08:31:36;;;;;;;4.00;2.47;;;10.20;99.90;;;;;;5072753;28;20253;-66
2023/05/02 08:34:02;;;;;;;3.23;2.93;;;10.30;99.90;;;;;;5073429;28;20419;-66
2023/05/02 08:36:28;;;;;;;2.60;2.10;;;10.30;99.90;;;;;;5074311;28;20514;-69
2023/05/02 08:38:56;;;;;;;8.97;3.00;;;10.50;99.90;;;;;;5073239;28;20633;-67
2023/05/02 08:41:24;;;;;;;5.70;3.10;;;10.50;99.90;;;;;;5072028;28;20177;-66
2023/05/02 08:43:49;;;;;;;5.57;2.20;;;10.50;99.90;;;;;;5073778;28;20406;-65
2023/05/02 08:46:16;;;;;;;4.47;2.77;;;10.60;99.90;;;;;;5073542;28;20382;-66
2023/05/02 08:48:44;;;;;;;7.43;2.70;;;10.70;99.90;;;;;;5055177;28;20575;-68
2023/05/02 08:51:16;;;;;;;3.73;2.57;;;10.70;99.90;;;;;;5072415;28;20477;-66
2023/05/02 08:53:42;;;;;;;3.90;2.50;;;10.80;99.90;;;;;;5073904;28;20424;-66
2023/05/02 08:56:10;;;;;;;8.30;2.40;;;11.10;99.90;;;;;;5072564;28;20510;-68
2023/05/02 08:58:37;;;;;;;8.40;3.20;;;11.40;99.90;;;;;;5073512;28;20388;-66
2023/05/02 09:01:15;;;;;;;5.73;3.10;;;11.70;99.90;;;;;;5072446;28;20371;-67
2023/05/02 09:03:43;;;;;;;6.80;3.17;;;11.80;99.90;;;;;;5073640;28;20407;-69
2023/05/02 09:06:11;;;;;;;7.53;2.90;;;11.90;99.90;;;;;;5073081;28;20383;-68
2023/05/02 09:08:47;;;;;;;4.43;2.20;;;11.90;99.90;;;;;;5073113;28;20391;-66
2023/05/02 09:11:13;;;;;;;8.17;3.33;;;11.90;99.90;;;;;;5071742;28;20509;-68
2023/05/02 09:13:44;;;;;;;6.80;2.70;;;11.90;99.90;;;;;;5073266;28;20463;-68
2023/05/02 09:16:16;;;;;;;2.40;2.00;;;11.60;99.90;;;;;;5072744;28;20452;-67
2023/05/02 09:18:47;;;;;;;5.00;2.57;;;11.30;99.90;;;;;;5073304;28;20436;-69
2023/05/02 09:21:24;;;;;;;4.30;2.70;;;11.60;99.90;;;;;;5072345;28;20387;-67
2023/05/02 09:23:57;;;;;;;8.23;2.93;;;12.00;99.90;;;;;;5061126;28;20424;-69
2023/05/02 09:26:31;;;;;;;7.17;3.40;;;12.00;99.90;;;;;;5052650;28;20818;-66
2023/05/02 09:28:58;;;;;;;4.57;2.30;;;12.00;99.90;;;;;;5069501;28;20438;-66
2023/05/02 09:31:35;;;;;;;5.70;2.60;;;12.10;99.90;;;;;;5072517;28;20367;-68
2023/05/02 09:34:13;;;;;;;3.10;2.80;;;12.00;99.90;;;;;;5071969;28;20488;-69
2023/05/02 09:37:12;;;;;;;1.87;1.77;;;12.30;99.90;;;;;;5073181;28;20484;-67
2023/05/02 09:39:38;;;;;;;3.20;1.97;;;13.10;99.90;;;;;;5072733;28;20466;-69
2023/05/02 09:42:03;;;;;;;4.23;2.00;;;13.20;99.90;;;;;;5071817;28;20469;-67
2023/05/02 09:44:39;;;;;;;12.60;3.00;;;13.10;99.90;;;;;;5072884;28;20170;-69
2023/05/02 09:47:07;;;;;;;3.37;2.53;;;12.80;99.90;;;;;;5073074;28;20212;-69
2023/05/02 09:49:47;;;;;;;9.80;2.70;;;12.30;99.90;;;;;;5073187;28;20415;-68
2023/05/02 09:52:20;;;;;;;5.37;2.77;;;12.20;99.90;;;;;;5056473;28;20851;-69
2023/05/02 09:54:49;;;;;;;5.33;2.83;;;12.00;99.90;;;;;;5077226;28;20437;-69
2023/05/02 09:57:15;;;;;;;13.80;2.90;;;12.30;99.90;;;;;;5058795;28;20780;-70
2023/05/02 09:59:41;;;;;;;3.97;2.10;;;12.50;99.90;;;;;;5076782;28;20379;-68
2023/05/02 10:02:09;;;;;;;9.87;2.53;;;12.40;99.90;;;;;;5074044;28;20434;-68
2023/05/02 10:04:39;;;;;;;12.37;2.90;;;12.30;99.90;;;;;;5076749;28;20379;-70
2023/05/02 10:07:05;;;;;;;4.20;2.50;;;12.10;99.90;;;;;;5076595;28;20466;-67
2023/05/02 10:09:34;;;;;;;6.67;2.43;;;12.20;99.90;;;;;;5076376;28;20375;-68
2023/05/02 10:12:07;;;;;;;4.40;2.93;;;12.20;99.90;;;;;;5075309;28;20404;-67
2023/05/02 10:14:42;;;;;;;4.50;2.40;;;12.60;99.90;;;;;;5076326;28;20414;-70
2023/05/02 10:17:28;;;;;;;5.20;2.47;;;12.80;99.90;;;;;;5075486;28;20409;-67
2023/05/02 10:20:02;;;;;;;5.90;2.63;;;12.50;99.90;;;;;;5075365;28;20382;-69
2023/05/02 10:22:30;;;;;;;5.50;2.50;;;12.30;99.90;;;;;;5075694;28;20395;-68
2023/05/02 10:24:58;;;;;;;4.73;2.70;;;12.20;99.90;;;;;;5076391;28;20431;-71
2023/05/02 10:27:24;;;;;;;8.23;2.30;;;12.20;99.90;;;;;;5076110;28;20423;-70
2023/05/02 10:29:50;;;;;;;3.53;2.73;;;12.10;99.90;;;;;;5075284;28;20460;-68
2023/05/02 10:32:17;;;;;;;8.77;2.93;;;12.20;99.90;;;;;;5075552;28;20989;-71
2023/05/02 10:34:45;;;;;;;5.00;4.43;;;12.30;99.90;;;;;;5058162;28;20489;-71
2023/05/02 10:37:11;;;;;;;6.43;3.60;;;13.00;99.90;;;;;;5075507;28;20379;-69
2023/05/02 10:39:44;;;;;;;5.23;2.77;;;13.20;99.90;;;;;;5076369;28;20397;-67
2023/05/02 10:42:13;;;;;;;4.87;2.90;;;13.00;99.90;;;;;;5074087;28;20960;-70
2023/05/02 10:44:40;;;;;;;3.33;2.77;;;12.70;99.90;;;;;;5074017;28;20451;-68
2023/05/02 10:47:20;;;;;;;4.53;3.27;;;12.60;99.90;;;;;;5075911;28;20407;-67
2023/05/02 10:50:03;;;;;;;7.13;3.20;;;12.60;99.90;;;;;;5075796;28;20455;-67
2023/05/02 10:52:35;;;;;;;6.53;3.30;;;12.70;99.90;;;;;;5075077;28;20427;-70
2023/05/02 10:55:20;;;;;;;10.23;3.47;;;12.60;99.90;;;;;;5075447;28;20467;-71
2023/05/02 10:57:57;;;;;;;6.43;3.13;;;12.30;99.90;;;;;;5075583;28;20405;-71
2023/05/02 11:00:28;;;;;;;10.33;3.43;;;12.00;99.90;;;;;;5055502;28;20492;-67
2023/05/02 11:02:54;;;;;;;6.33;3.40;;;11.80;99.90;;;;;;5076354;28;20448;-68
2023/05/02 11:05:24;;;;;;;5.43;2.87;;;12.60;99.90;;;;;;5075562;28;20470;-68
2023/05/02 11:08:16;;;;;;;6.90;2.73;;;13.00;99.90;;;;;;5076003;28;20407;-68
2023/05/02 11:10:44;;;;;;;3.40;3.00;;;12.90;99.90;;;;;;5055987;28;20459;-70
2023/05/02 11:13:11;;;;;;;4.83;2.37;;;12.70;99.90;;;;;;5056708;28;20438;-70
2023/05/02 11:15:39;;;;;;;9.23;2.57;;;12.40;99.90;;;;;;5074095;28;20423;-68
2023/05/02 11:18:07;;;;;;;5.93;2.93;;;13.20;99.90;;;;;;5075013;28;20401;-71
2023/05/02 11:20:33;;;;;;;6.90;2.57;;;14.40;99.90;;;;;;5074241;28;20454;-69
2023/05/02 11:23:21;;;;;;;10.93;3.37;;;15.40;99.90;;;;;;5075280;28;20466;-72
2023/05/02 11:25:53;;;;;;;5.23;2.00;;;16.20;99.90;;;;;;5075149;28;20415;-68
2023/05/02 11:28:38;;;;;;;2.93;2.30;;;16.30;99.90;;;;;;5073687;28;20486;-71
2023/05/02 11:31:09;;;;;;;6.43;2.73;;;15.80;99.90;;;;;;5074071;28;20397;-68
2023/05/02 11:33:35;;;;;;;6.33;3.10;;;15.40;99.90;;;;;;5074418;28;20976;-68
2023/05/02 11:36:01;;;;;;;7.13;2.37;;;15.10;99.90;;;;;;5074574;28;20547;-72
2023/05/02 11:38:37;;;;;;;6.40;2.77;;;15.70;99.90;;;;;;5056725;28;20915;-71
2023/05/02 11:41:07;;;;;;;4.07;2.23;;;16.40;99.90;;;;;;5074808;28;20500;-68
2023/05/02 11:43:33;;;;;;;5.30;2.20;;;16.80;99.90;;;;;;5074736;28;20428;-69
2023/05/02 11:46:00;;;;;;;2.80;1.97;;;17.10;99.90;;;;;;5074938;28;20393;-70
2023/05/02 11:48:26;;;;;;;3.73;1.80;;;17.40;99.90;;;;;;5072828;28;20175;-72
2023/05/02 11:50:54;;;;;;;5.30;2.30;;;17.80;99.90;;;;;;5073507;28;20440;-69
2023/05/02 11:53:22;;;;;;;3.63;2.70;;;17.60;99.90;;;;;;5074618;28;20456;-71
2023/05/02 11:56:22;;;;;;;5.50;3.67;;;16.80;99.90;;;;;;5074595;28;20470;-69
2023/05/02 11:59:12;;;;;;;12.60;2.00;;;16.20;99.90;;;;;;5052128;28;20837;-71
2023/05/02 12:01:52;;;;;;;5.50;2.53;;;15.50;99.90;;;;;;5054513;28;20413;-71
2023/05/02 12:04:22;;;;;;;3.93;2.83;;;15.20;99.90;;;;;;5054222;28;20813;-69
2023/05/02 12:06:58;;;;;;;6.33;3.07;;;15.10;99.90;;;;;;5053981;28;20759;-68
2023/05/02 12:09:24;;;;;;;5.43;2.33;;;14.90;99.90;;;;;;5053782;28;20416;-72
2023/05/02 12:11:53;;;;;;;7.43;2.47;;;14.40;99.90;;;;;;5053090;28;20405;-68
2023/05/02 12:14:27;;;;;;;6.30;2.97;;;13.90;99.90;;;;;;5058417;28;20208;-70
2023/05/02 12:16:54;;;;;;;5.17;2.73;;;13.70;99.90;;;;;;5074048;28;20955;-71
2023/05/02 12:19:20;;;;;;;3.20;2.13;;;13.40;99.90;;;;;;5073967;28;20400;-68
2023/05/02 12:21:47;;;;;;;2.77;2.30;;;14.00;99.90;;;;;;5073155;28;20396;-69
2023/05/02 12:24:14;;;;;;;4.23;2.60;;;15.40;99.90;;;;;;5073892;28;20397;-69
2023/05/02 12:26:43;;;;;;;7.07;2.00;;;16.30;99.90;;;;;;5072387;28;20408;-71
2023/05/02 12:29:11;;;;;;;3.40;2.37;;;16.10;99.90;;;;;;5073931;28;20768;-69
2023/05/02 12:31:38;;;;;;;3.67;2.20;;;15.50;99.90;;;;;;5055373;28;20408;-72
2023/05/02 12:34:04;;;;;;;8.23;2.90;;;15.10;99.90;;;;;;5073626;28;20429;-68
2023/05/02 12:36:32;;;;;;;5.90;3.43;;;14.80;99.90;;;;;;5073819;28;20834;-72
2023/05/02 12:39:22;;;;;;;9.63;3.17;;;14.30;99.90;;;;;;5055884;28;20481;-71
2023/05/02 12:41:48;;;;;;;6.00;2.60;;;14.30;99.90;;;;;;5059409;28;20437;-71
2023/05/02 12:44:39;;;;;;;8.30;2.40;;;14.70;99.90;;;;;;5055416;28;20543;-71
2023/05/02 12:47:05;;;;;;;6.37;2.90;;;15.40;99.90;;;;;;5073200;28;20428;-69
2023/05/02 12:49:31;;;;;;;3.73;2.37;;;15.50;99.90;;;;;;5073500;28;20404;-68
2023/05/02 12:52:00;;;;;;;5.57;2.47;;;15.30;99.90;;;;;;5054513;28;20420;-70
2023/05/02 12:54:26;;;;;;;4.93;2.40;;;14.80;99.90;;;;;;5074143;28;20462;-67
2023/05/02 12:56:52;;;;;;;11.77;2.00;;;14.50;99.90;;;;;;5072797;28;20562;-69
2023/05/02 12:59:31;;;;;;;4.03;2.33;;;14.20;99.90;;;;;;5073147;28;20631;-69